Am Tubarao — A8ZA9 — position and weather

sailwx.info

Track history (hours):
 
Tides and Currents Weather Stations Pressure Air Temp Water Temp Dewpoint Dewpoint Depression Visibility Wind Speed Wind Dir Waves Ship Positions

Am Tubarao

Last reported at 2016-Feb-04 09:33 UTC. Time now 2016-Feb-10 00:37 UTC.
Position S 39°00' E 142°42'.

Length 230 m; draft 14.6 m.

Type: Cargo ship. MMSI: 636015171.

Date/timePositionNaut miles runAvg speedWind from/ knotsBaromVisibWave heightAir tempDewpointWater temp
2016-Feb-04 09:33S 39°00' E 142°42'10 9.1
2016-Feb-04 08:30S 39°02' E 142°54'8 9.0
2016-Feb-04 07:33S 39°04' E 143°04'34 8.6
2016-Feb-04 03:34S 39°08' E 143°48'92 9.9
2016-Feb-03 18:12S 39°11' E 145°48'6 9.6
2016-Feb-03 17:33S 39°11' E 145°56'10 9.6
2016-Feb-03 16:34S 39°11' E 146°08'1010.0
2016-Feb-03 15:33S 39°11' E 146°21'1010.1
2016-Feb-03 14:33S 39°08' E 146°33'10 9.8
2016-Feb-03 13:33S 39°05' E 146°45'9 9.3
2016-Feb-03 12:34S 39°02' E 146°57'9 9.4
2016-Feb-03 11:33S 38°59' E 147°08'10 9.3
2016-Feb-03 10:25S 38°55' E 147°20'8310.6
2016-Feb-03 02:33S 38°22' E 148°58'1111.2
2016-Feb-03 01:34S 38°16' E 149°10'1111.0
2016-Feb-03 00:33S 38°11' E 149°22'2512.5
2016-Feb-02 22:33S 37°57' E 149°49'1111.4
2016-Feb-02 21:34S 37°52' E 150°02'1111.1
2016-Feb-02 20:34S 37°44' E 150°11'1211.9
2016-Feb-02 19:33S 37°33' E 150°17'1212.0
2016-Feb-02 18:33S 37°21' E 150°23'1212.2
2016-Feb-02 17:33S 37°10' E 150°28'1212.4
2016-Feb-02 16:33S 36°59' E 150°34'1212.3
2016-Feb-02 15:33S 36°47' E 150°40'1211.9
2016-Feb-02 14:33S 36°36' E 150°46'1111.5
2016-Feb-02 13:34S 36°26' E 150°51'1111.3
2016-Feb-02 12:34S 36°15' E 150°56'1110.9
2016-Feb-02 11:33S 36°05' E 151°02'1110.8
2016-Feb-02 10:34S 35°55' E 151°07'1211.0
2016-Feb-02 09:29S 35°44' E 151°12'1011.1
2016-Feb-02 08:33S 35°35' E 151°18'1111.3
2016-Feb-02 07:33S 35°25' E 151°23'17311.3
2016-Feb-01 16:12S 32°44' E 152°42'1013.9
2016-Feb-01 15:29S 32°35' E 152°47'1314.4
2016-Feb-01 14:33S 32°22' E 152°52'3314.9
2016-Feb-01 12:20S 31°51' E 153°04'1215.4
2016-Feb-01 11:33S 31°40' E 153°08'1515.3
2016-Feb-01 10:33S 31°25' E 153°14'  
Track history (hours):
 
Tides and Currents Weather Stations Pressure Air Temp Water Temp Dewpoint Dewpoint Depression Visibility Wind Speed Wind Dir Waves Ship Positions

Am Tubarao

Last reported at 2016-Feb-04 09:33 UTC. Time now 2016-Feb-10 00:37 UTC.
Position S 39°00' E 142°42'.

Length 230 m; draft 14.6 m.

Type: Cargo ship. MMSI: 636015171.

Date/timePositionNaut miles runAvg speedWind from/ knotsBaromVisibWave heightAir tempDewpointWater temp
2016-Feb-04 09:33S 39°00' E 142°42'10 9.1
2016-Feb-04 08:30S 39°02' E 142°54'8 9.0
2016-Feb-04 07:33S 39°04' E 143°04'34 8.6
2016-Feb-04 03:34S 39°08' E 143°48'92 9.9
2016-Feb-03 18:12S 39°11' E 145°48'6 9.6
2016-Feb-03 17:33S 39°11' E 145°56'10 9.6
2016-Feb-03 16:34S 39°11' E 146°08'1010.0
2016-Feb-03 15:33S 39°11' E 146°21'1010.1
2016-Feb-03 14:33S 39°08' E 146°33'10 9.8
2016-Feb-03 13:33S 39°05' E 146°45'9 9.3
2016-Feb-03 12:34S 39°02' E 146°57'9 9.4
2016-Feb-03 11:33S 38°59' E 147°08'10 9.3
2016-Feb-03 10:25S 38°55' E 147°20'8310.6
2016-Feb-03 02:33S 38°22' E 148°58'1111.2
2016-Feb-03 01:34S 38°16' E 149°10'1111.0
2016-Feb-03 00:33S 38°11' E 149°22'2512.5
2016-Feb-02 22:33S 37°57' E 149°49'1111.4
2016-Feb-02 21:34S 37°52' E 150°02'1111.1
2016-Feb-02 20:34S 37°44' E 150°11'1211.9
2016-Feb-02 19:33S 37°33' E 150°17'1212.0
2016-Feb-02 18:33S 37°21' E 150°23'1212.2
2016-Feb-02 17:33S 37°10' E 150°28'1212.4
2016-Feb-02 16:33S 36°59' E 150°34'1212.3
2016-Feb-02 15:33S 36°47' E 150°40'1211.9
2016-Feb-02 14:33S 36°36' E 150°46'1111.5
2016-Feb-02 13:34S 36°26' E 150°51'1111.3
2016-Feb-02 12:34S 36°15' E 150°56'1110.9
2016-Feb-02 11:33S 36°05' E 151°02'1110.8
2016-Feb-02 10:34S 35°55' E 151°07'1211.0
2016-Feb-02 09:29S 35°44' E 151°12'1011.1
2016-Feb-02 08:33S 35°35' E 151°18'1111.3
2016-Feb-02 07:33S 35°25' E 151°23'17311.3
2016-Feb-01 16:12S 32°44' E 152°42'1013.9
2016-Feb-01 15:29S 32°35' E 152°47'1314.4
2016-Feb-01 14:33S 32°22' E 152°52'3314.9
2016-Feb-01 12:20S 31°51' E 153°04'1215.4
2016-Feb-01 11:33S 31°40' E 153°08'1515.3
2016-Feb-01 10:33S 31°25' E 153°14'  

Dump ship's entire track history